Aérodrome :







RETROUVEZ-NOUS SUR...

 
LOGIN :

S'inscrire | Disclaimer

   EN    FR    IT 

 









Légende :    VFR   VFR Marginal   IFR   IFR Intensif   IFR Très Intensif
Visi : 
Plafond : 
>= 8 km
>= 3000ft
5 à 8 km
1000 à 3000 ft
1500m à 5 km
500 à 1000 ft
800 à 1500m
200 à 500 ft
< 800m
< 200 ft
Symboles :   Orages  Brouillard  Fortes neiges  Fortes précipitations  Vent > 20 kt






- Altitude de l'aérodrome : 192 ft
- Code IATA : BGR


KBGR - Bangor International

DERNIER METAR :
  • 241753Z 19011KT 10SM CLR 08/M03 A2993 RMK AO2 SLP138 I6002 T00781028 10078 21022 58020

METARs EXPIRÉS :
  • 241653Z 18011G17KT 10SM CLR 06/M02 A2996 RMK AO2 SLP147 T00611022
  • 241553Z 00000KT 3SM BR FEW002 02/M01 A2999 RMK AO2 SFC VIS 6 SLP160 T00171006
  • 241550Z 00000KT 3SM BR FEW002 01/M01 A2999 RMK AO2 SFC VIS 5
  • 241536Z 00000KT 1/4SM R15/1800VP6000FT FG BKN002 02/M01 A3000 RMK AO2 SFC VIS 1/2 T00171006
  • 241453Z 14004KT 1/4SM R15/1000V1200FT FG VV002 00/M02 A3001 RMK AO2 TWR VIS 1/4 SLP164 I3002 T00001017 58001

TAF KBGR
Valide du 24 à 18h jusqu'au 25 à 18h UTC


241726Z 2418/2518 19009G15KT P6SM FEW100
FM250200 00000KT P6SM FEW100
FM251100 00000KT 6SM BR SCT001
FM251400 00000KT P6SM SCT070
FM251700 02003KT P6SM SCT060



MET'MAP, la Météo Aéronautique d'un coup d'oeil ! - Copyright ORBIFLY Décembre 2007 - Disclaimer

ORBIFLY MET'MAP TEAM :

Programmation & Développement : Alexandra Zaïnal
Sur une idée originale de : Baudouin d'Aumeries
Assistance à la programmation : Marc-Olivier Méhu
Soutien technique & logistique : Manuel Goepfert

Contact : metmap@orbifly.com




SOURCES & CREDITS :

   NOAA